Airport View

Enter AWOS ICAO identifier for current METAR.

ex. KFNL

KFRR 140230Z AUTO 00000KT 1 1/4SM OVC003 00/00 A2994 RMK AO1

14 Dec 2019 02:25

Frequency: 121.85

Phone: 540-635-5377

Other Area AWOS: KOKV - KLUA - K8W2 - KCJR

TAF KMRB 132343Z 1400/1424 36003KT 1SM BR OVC002 FM140400 VRB03KT 3/4SM RA BR OVC003 FM141700 26004KT 2SM -RA OVC025 FM141800 26005KT 3SM -RA OVC035 FM142000 28013KT P6SM OVC070 FM142300 28013G20KT P6SM BKN080